createdAt,value
2018-02-01T00:01:47.858Z,88.10
2018-02-01T00:12:48.336Z,89.40
2018-02-01T00:15:15.798Z,89.80
2018-02-01T00:17:43.274Z,89.60
2018-02-01T00:20:11.519Z,89.10
2018-02-01T00:22:39.042Z,89.10
2018-02-01T00:25:06.507Z,89.50
2018-02-01T00:27:34.011Z,90.00
2018-02-01T00:30:01.482Z,90.10
2018-02-01T00:32:29.725Z,90.00
2018-02-01T00:34:57.195Z,90.00
2018-02-01T00:37:24.682Z,90.20
2018-02-01T00:39:52.152Z,90.20
2018-02-01T00:42:19.614Z,90.30
2018-02-01T00:44:47.084Z,90.00
2018-02-01T00:47:14.544Z,90.20
2018-02-01T00:49:42.030Z,90.30
2018-02-01T00:52:09.528Z,90.00
2018-02-01T00:54:36.998Z,90.30
2018-02-01T00:57:04.462Z,90.20
2018-02-01T00:59:31.949Z,90.40
2018-02-01T01:01:59.444Z,90.20
2018-02-01T01:04:26.931Z,90.10
2018-02-01T01:06:54.469Z,90.60
2018-02-01T01:09:21.935Z,90.40
2018-02-01T01:11:49.420Z,90.10
2018-02-01T01:14:16.891Z,90.20
2018-02-01T01:16:44.379Z,90.50
2018-02-01T01:19:11.860Z,90.50
2018-02-01T01:21:39.327Z,90.40
2018-02-01T01:24:06.794Z,90.90
2018-02-01T01:26:34.275Z,91.20
2018-02-01T01:29:01.760Z,91.30
2018-02-01T01:31:29.231Z,91.30
2018-02-01T01:33:56.698Z,91.20
2018-02-01T01:36:24.187Z,90.90
2018-02-01T01:38:51.642Z,90.50
2018-02-01T01:41:19.140Z,90.30
2018-02-01T01:43:46.621Z,90.30
2018-02-01T01:46:14.087Z,90.10
2018-02-01T01:48:41.575Z,90.00
2018-02-01T01:51:09.051Z,89.60
2018-02-01T01:53:37.279Z,89.20
2018-02-01T01:56:04.755Z,89.10
2018-02-01T01:58:32.223Z,89.10
2018-02-01T02:01:00.466Z,89.00
2018-02-01T02:03:27.921Z,89.10
2018-02-01T02:05:55.410Z,89.20
2018-02-01T02:08:23.655Z,89.80
2018-02-01T02:10:51.134Z,89.80
2018-02-01T02:13:18.598Z,90.00
2018-02-01T02:15:46.851Z,90.10
2018-02-01T02:18:14.329Z,90.10
2018-02-01T02:20:42.574Z,90.30
2018-02-01T02:23:10.811Z,90.30
2018-02-01T02:25:38.368Z,90.30
2018-02-01T02:28:05.828Z,90.20
2018-02-01T02:30:33.315Z,90.10
2018-02-01T02:33:00.767Z,90.00
2018-02-01T02:35:28.248Z,90.00
2018-02-01T02:37:56.489Z,90.00
2018-02-01T02:40:23.964Z,90.00
2018-02-01T02:42:51.441Z,90.00
2018-02-01T02:45:19.680Z,89.70
2018-02-01T02:47:47.159Z,89.70
2018-02-01T02:50:14.633Z,89.40
2018-02-01T02:52:42.871Z,89.30
2018-02-01T02:55:10.343Z,89.20
2018-02-01T02:57:37.823Z,89.00
2018-02-01T03:00:05.304Z,89.60
2018-02-01T03:02:32.779Z,88.80
2018-02-01T03:05:00.245Z,88.50
2018-02-01T03:07:27.727Z,88.30
2018-02-01T03:09:55.951Z,88.30
2018-02-01T03:12:23.438Z,88.30
2018-02-01T03:14:50.902Z,88.20
2018-02-01T03:17:18.374Z,88.20
2018-02-01T03:19:46.606Z,88.00
2018-02-01T03:22:14.080Z,87.90
2018-02-01T03:24:41.546Z,87.90
2018-02-01T03:27:09.030Z,88.30
2018-02-01T03:29:37.270Z,89.00
2018-02-01T03:32:04.744Z,89.00
2018-02-01T03:34:33.010Z,89.40
2018-02-01T03:37:01.245Z,90.10
2018-02-01T03:39:28.754Z,89.70
2018-02-01T03:41:56.995Z,90.00
2018-02-01T03:44:25.230Z,90.20
2018-02-01T03:46:52.702Z,90.20
2018-02-01T03:49:20.167Z,90.30
2018-02-01T03:51:47.653Z,90.50
2018-02-01T03:54:15.124Z,90.50
2018-02-01T03:56:44.311Z,90.60
2018-02-01T03:59:12.549Z,90.70
2018-02-01T04:01:40.053Z,90.70
2018-02-01T04:04:08.285Z,90.60
2018-02-01T04:06:35.788Z,90.60
2018-02-01T04:09:04.020Z,90.70
2018-02-01T04:11:31.500Z,90.70
2018-02-01T04:13:59.729Z,90.70
2018-02-01T04:16:27.201Z,90.60
2018-02-01T04:18:54.674Z,90.70
2018-02-01T04:21:22.910Z,90.80
2018-02-01T04:23:50.392Z,90.80
2018-02-01T04:26:17.869Z,90.70
2018-02-01T04:28:46.108Z,90.70
2018-02-01T04:31:13.602Z,90.70
2018-02-01T04:33:41.070Z,90.60
2018-02-01T04:36:09.307Z,90.90
2018-02-01T04:38:36.951Z,90.60
2018-02-01T04:41:04.403Z,90.50
2018-02-01T04:43:31.873Z,90.40
2018-02-01T04:45:59.326Z,90.50
2018-02-01T04:48:26.802Z,90.40
2018-02-01T04:50:55.050Z,90.40
2018-02-01T04:53:22.524Z,90.40
2018-02-01T04:55:49.985Z,90.60
2018-02-01T04:58:17.450Z,90.40
2018-02-01T05:00:45.691Z,90.50
2018-02-01T05:03:13.179Z,90.50
2018-02-01T05:05:40.647Z,90.50
2018-02-01T05:08:08.889Z,90.70
2018-02-01T05:10:36.369Z,90.70
2018-02-01T05:13:03.818Z,90.80
2018-02-01T05:15:32.053Z,90.60
2018-02-01T05:17:59.507Z,90.70
2018-02-01T05:20:26.987Z,90.80
2018-02-01T05:22:55.211Z,90.80
2018-02-01T05:25:22.681Z,90.80
2018-02-01T05:27:50.136Z,90.80
2018-02-01T05:30:17.621Z,90.80
2018-02-01T05:32:45.110Z,90.80
2018-02-01T05:35:13.326Z,90.80
2018-02-01T05:37:40.817Z,90.80
2018-02-01T05:40:08.318Z,90.70
2018-02-01T05:42:35.885Z,90.70
2018-02-01T05:45:03.335Z,90.70
2018-02-01T05:47:30.812Z,90.90
2018-02-01T05:49:58.304Z,90.90
2018-02-01T05:52:25.768Z,90.80
2018-02-01T05:54:53.230Z,91.00
2018-02-01T05:57:21.475Z,91.20
2018-02-01T05:59:48.948Z,91.20
2018-02-01T06:02:16.421Z,91.00
2018-02-01T06:04:44.659Z,91.10
2018-02-01T06:07:12.151Z,91.00
2018-02-01T06:09:40.391Z,91.00
2018-02-01T06:12:07.876Z,91.00
2018-02-01T06:14:36.120Z,90.80
2018-02-01T06:17:03.577Z,90.80
2018-02-01T06:19:31.051Z,90.90
2018-02-01T06:21:59.271Z,91.10
2018-02-01T06:24:26.782Z,91.10
2018-02-01T06:26:54.255Z,91.20
2018-02-01T06:29:22.493Z,90.80
2018-02-01T06:31:49.955Z,90.80
2018-02-01T06:34:17.438Z,90.30
2018-02-01T06:36:45.841Z,90.40
2018-02-01T06:39:13.318Z,90.30
2018-02-01T06:41:40.777Z,90.20
2018-02-01T06:44:08.234Z,89.60
2018-02-01T06:46:35.714Z,88.80
2018-02-01T06:49:03.195Z,88.40
2018-02-01T06:51:31.445Z,88.20
2018-02-01T06:53:59.093Z,88.20
2018-02-01T06:56:26.556Z,88.70
2018-02-01T06:58:54.036Z,88.40
2018-02-01T07:01:36.384Z,88.30
2018-02-01T07:04:03.848Z,88.50
2018-02-01T07:06:31.327Z,88.70
2018-02-01T07:08:58.863Z,88.70
2018-02-01T07:11:26.339Z,88.70
2018-02-01T07:13:53.798Z,89.00
2018-02-01T07:16:21.284Z,89.10
2018-02-01T07:18:49.518Z,89.40
2018-02-01T07:21:17.015Z,89.40
2018-02-01T07:23:45.259Z,90.10
2018-02-01T07:26:12.753Z,90.00
2018-02-01T07:28:40.979Z,90.00
2018-02-01T07:31:08.704Z,90.00
2018-02-01T07:33:36.184Z,90.00
2018-02-01T07:36:03.709Z,90.20
2018-02-01T07:38:31.196Z,89.90
2018-02-01T07:40:58.734Z,90.00
2018-02-01T07:43:26.221Z,89.40
2018-02-01T07:45:55.306Z,89.90
2018-02-01T07:48:22.791Z,88.30
2018-02-01T07:50:50.251Z,88.30
2018-02-01T07:53:17.753Z,88.80
2018-02-01T07:55:45.226Z,87.80
2018-02-01T07:58:12.698Z,85.50
2018-02-01T08:00:40.170Z,83.50
2018-02-01T08:03:07.654Z,81.50
2018-02-01T08:05:35.907Z,79.80
2018-02-01T08:08:03.366Z,79.70
2018-02-01T08:10:31.606Z,73.70
2018-02-01T08:12:59.102Z,73.70
2018-02-01T08:15:27.319Z,71.50
2018-02-01T08:17:54.802Z,70.60
2018-02-01T08:20:22.268Z,70.10
2018-02-01T08:22:49.753Z,69.50
2018-02-01T08:25:17.246Z,70.20
2018-02-01T08:27:44.700Z,70.20
2018-02-01T08:30:12.162Z,69.90
2018-02-01T08:32:39.623Z,70.50
2018-02-01T08:35:07.089Z,71.50
2018-02-01T08:37:34.563Z,71.80
2018-02-01T08:40:02.053Z,70.50
2018-02-01T08:42:29.534Z,69.70
2018-02-01T08:44:56.986Z,69.00
2018-02-01T08:47:24.459Z,67.60
2018-02-01T08:49:51.925Z,66.10
2018-02-01T08:52:19.502Z,62.80
2018-02-01T08:54:47.729Z,60.60
2018-02-01T08:57:15.200Z,60.70
2018-02-01T08:59:42.686Z,60.80
2018-02-01T09:02:10.154Z,60.80
2018-02-01T09:04:38.372Z,61.50
2018-02-01T09:07:05.842Z,61.20
2018-02-01T09:09:33.300Z,63.10
2018-02-01T09:12:00.779Z,62.10
2018-02-01T09:14:28.253Z,60.10
2018-02-01T09:16:56.534Z,57.70
2018-02-01T09:19:24.774Z,58.40
2018-02-01T09:21:52.258Z,58.40
2018-02-01T09:24:20.486Z,60.40
2018-02-01T09:26:47.950Z,60.30
2018-02-01T09:29:15.414Z,60.60
2018-02-01T09:31:42.910Z,61.20
2018-02-01T09:34:10.370Z,60.40
2018-02-01T09:36:37.863Z,59.00
2018-02-01T09:39:05.343Z,58.90
2018-02-01T09:41:34.317Z,58.50
2018-02-01T09:44:01.791Z,58.50
2018-02-01T09:46:29.254Z,58.80
2018-02-01T09:48:56.825Z,58.20
2018-02-01T09:51:25.063Z,56.70
2018-02-01T09:53:52.529Z,56.70
2018-02-01T09:56:19.983Z,57.00
2018-02-01T09:58:47.547Z,57.90
2018-02-01T10:01:15.039Z,58.40
2018-02-01T10:03:42.628Z,58.90
2018-02-01T10:06:10.081Z,59.60
2018-02-01T10:08:37.547Z,60.10
2018-02-01T10:11:05.033Z,61.20
2018-02-01T10:13:32.483Z,62.50
2018-02-01T10:15:59.959Z,62.90
2018-02-01T10:18:27.518Z,63.30
2018-02-01T10:20:55.010Z,63.70
2018-02-01T10:23:22.463Z,64.50
2018-02-01T10:25:49.926Z,65.10
2018-02-01T10:28:17.420Z,64.70
2018-02-01T10:30:48.707Z,64.10
2018-02-01T10:33:16.185Z,65.60
2018-02-01T10:35:43.642Z,64.90
2018-02-01T10:38:11.194Z,64.60
2018-02-01T10:40:42.055Z,64.70
2018-02-01T10:43:09.561Z,63.90
2018-02-01T10:45:37.008Z,63.60
2018-02-01T10:48:05.270Z,62.70
2018-02-01T10:50:32.731Z,62.70
2018-02-01T10:53:00.966Z,62.60
2018-02-01T10:55:28.466Z,62.60
2018-02-01T10:57:56.712Z,62.40
2018-02-01T11:00:24.200Z,62.40
2018-02-01T11:02:53.317Z,61.70
2018-02-01T11:05:20.789Z,61.20
2018-02-01T11:07:48.282Z,61.90
2018-02-01T11:10:15.800Z,62.60
2018-02-01T11:12:43.291Z,63.10
2018-02-01T11:15:10.760Z,62.90
2018-02-01T11:17:39.019Z,63.70
2018-02-01T11:20:06.603Z,63.20
2018-02-01T11:22:34.833Z,61.70
2018-02-01T11:25:02.306Z,61.70
2018-02-01T11:27:30.529Z,62.30
2018-02-01T11:29:58.007Z,62.30
2018-02-01T11:32:25.490Z,62.40
2018-02-01T11:34:53.003Z,62.90
2018-02-01T11:37:20.490Z,62.80
2018-02-01T11:39:47.994Z,62.40
2018-02-01T11:42:16.250Z,61.60
2018-02-01T11:44:43.754Z,61.60
2018-02-01T11:47:11.263Z,61.10
2018-02-01T11:49:38.832Z,61.10
2018-02-01T11:52:06.499Z,61.90
2018-02-01T11:54:34.773Z,62.20
2018-02-01T11:57:03.031Z,61.50
2018-02-01T11:59:30.502Z,61.50
2018-02-01T12:01:58.739Z,61.70
2018-02-01T12:04:26.193Z,61.70
2018-02-01T12:06:53.666Z,61.60
2018-02-01T12:09:21.122Z,61.40
2018-02-01T12:11:48.625Z,61.40
2018-02-01T12:14:16.083Z,61.40
2018-02-01T12:16:43.557Z,61.10
2018-02-01T12:19:11.033Z,62.00
2018-02-01T12:21:38.497Z,61.60
2018-02-01T12:24:05.994Z,62.20
2018-02-01T12:26:33.477Z,62.80
2018-02-01T12:29:00.965Z,63.20
2018-02-01T12:31:28.426Z,63.60
2018-02-01T12:33:55.994Z,63.70
2018-02-01T12:36:23.462Z,63.80
2018-02-01T12:38:51.705Z,63.90
2018-02-01T12:41:19.165Z,63.80
2018-02-01T12:43:46.664Z,64.30
2018-02-01T12:46:14.887Z,65.00
2018-02-01T12:48:42.360Z,64.90
2018-02-01T12:51:09.834Z,64.90
2018-02-01T12:53:38.197Z,65.30
2018-02-01T12:56:05.721Z,65.30
2018-02-01T12:58:33.176Z,66.40
2018-02-01T13:01:00.666Z,66.90
2018-02-01T13:03:28.912Z,68.80
2018-02-01T13:05:56.383Z,68.80
2018-02-01T13:08:23.884Z,69.50
2018-02-01T13:10:51.424Z,70.30
2018-02-01T13:13:19.641Z,70.30
2018-02-01T13:15:47.110Z,70.20
2018-02-01T13:18:14.583Z,70.50
2018-02-01T13:20:42.096Z,69.90
2018-02-01T13:23:09.566Z,69.70
2018-02-01T13:25:37.041Z,69.60
2018-02-01T13:28:04.506Z,69.20
2018-02-01T13:30:31.983Z,69.60
2018-02-01T13:32:59.508Z,70.00
2018-02-01T13:35:26.993Z,72.30
2018-02-01T13:37:54.472Z,73.00
2018-02-01T13:40:21.955Z,73.00
2018-02-01T13:42:49.437Z,72.90
2018-02-01T13:45:16.906Z,71.30
2018-02-01T13:47:44.377Z,72.60
2018-02-01T13:50:12.610Z,73.80
2018-02-01T13:52:40.075Z,73.80
2018-02-01T13:55:07.559Z,75.80
2018-02-01T13:57:35.780Z,75.70
2018-02-01T14:00:03.269Z,75.60
2018-02-01T14:02:30.741Z,75.90
2018-02-01T14:04:58.997Z,76.60
2018-02-01T14:07:26.438Z,76.60
2018-02-01T14:09:53.953Z,77.40
2018-02-01T14:12:21.398Z,77.50
2018-02-01T14:14:48.922Z,77.20
2018-02-01T14:17:16.395Z,76.90
2018-02-01T14:19:43.866Z,77.80
2018-02-01T14:22:12.181Z,77.10
2018-02-01T14:24:39.659Z,77.90
2018-02-01T14:27:07.105Z,78.20
2018-02-01T14:29:34.599Z,78.40
2018-02-01T14:32:02.844Z,79.80
2018-02-01T14:34:30.300Z,79.80
2018-02-01T14:37:01.935Z,79.70
2018-02-01T14:39:29.421Z,80.40
2018-02-01T14:41:56.908Z,80.10
2018-02-01T14:44:25.133Z,80.90
2018-02-01T14:46:52.593Z,80.90
2018-02-01T14:49:20.080Z,80.70
2018-02-01T14:51:48.376Z,80.90
2018-02-01T14:54:15.858Z,80.90
2018-02-01T14:56:43.392Z,80.80
2018-02-01T14:59:10.859Z,81.40
2018-02-01T15:01:38.381Z,81.70
2018-02-01T15:04:06.609Z,81.70
2018-02-01T15:06:34.099Z,81.60
2018-02-01T15:09:01.638Z,82.10
2018-02-01T15:11:29.104Z,82.50
2018-02-01T15:13:56.582Z,82.90
2018-02-01T15:16:24.930Z,83.50
2018-02-01T15:18:52.403Z,83.50
2018-02-01T15:21:19.978Z,83.90
2018-02-01T15:23:48.228Z,84.00
2018-02-01T15:26:15.699Z,84.00
2018-02-01T15:28:43.968Z,83.40
2018-02-01T15:31:11.441Z,83.40
2018-02-01T15:33:38.983Z,83.10
2018-02-01T15:36:06.427Z,83.20
2018-02-01T15:38:33.987Z,82.70
2018-02-01T15:41:01.462Z,83.20
2018-02-01T15:43:28.928Z,81.80
2018-02-01T15:45:56.409Z,81.80
2018-02-01T15:48:23.872Z,81.80
2018-02-01T15:50:51.591Z,81.70
2018-02-01T15:53:20.070Z,81.60
2018-02-01T15:55:48.413Z,81.30
2018-02-01T15:58:15.885Z,81.20
2018-02-01T16:00:43.358Z,80.90
2018-02-01T16:03:11.612Z,81.40
2018-02-01T16:05:39.079Z,81.40
2018-02-01T16:08:07.326Z,80.90
2018-02-01T16:10:34.846Z,80.90
2018-02-01T16:13:02.287Z,81.10
2018-02-01T16:15:29.798Z,80.30
2018-02-01T16:17:57.320Z,80.60
2018-02-01T16:20:24.828Z,81.20
2018-02-01T16:22:52.304Z,81.70
2018-02-01T16:25:20.572Z,81.80
2018-02-01T16:27:48.036Z,81.70
2018-02-01T16:30:16.276Z,83.50
2018-02-01T16:32:43.811Z,82.90
2018-02-01T16:35:11.347Z,83.30
2018-02-01T16:37:38.902Z,84.20
2018-02-01T16:40:06.359Z,84.20
2018-02-01T16:42:33.838Z,84.70
2018-02-01T16:45:01.308Z,84.60
2018-02-01T16:47:28.799Z,84.50
2018-02-01T16:49:57.064Z,84.40
2018-02-01T16:52:25.684Z,84.00
2018-02-01T16:54:53.159Z,84.00
2018-02-01T16:57:20.703Z,83.70
2018-02-01T16:59:48.179Z,83.20
2018-02-01T17:02:15.687Z,83.00
2018-02-01T17:04:43.923Z,82.30
2018-02-01T17:07:11.401Z,82.30
2018-02-01T17:09:39.650Z,82.20
2018-02-01T17:12:07.124Z,82.00
2018-02-01T17:14:34.630Z,81.50
2018-02-01T17:17:02.102Z,81.90
2018-02-01T17:19:29.603Z,81.80
2018-02-01T17:21:57.050Z,82.20
2018-02-01T17:24:24.540Z,81.70
2018-02-01T17:26:52.011Z,82.20
2018-02-01T17:29:19.527Z,82.60
2018-02-01T17:31:47.754Z,82.20
2018-02-01T17:34:15.237Z,82.20
2018-02-01T17:36:42.756Z,82.10
2018-02-01T17:39:10.255Z,81.80
2018-02-01T17:41:37.684Z,81.70
2018-02-01T17:44:05.154Z,81.70
2018-02-01T17:46:32.628Z,81.60
2018-02-01T17:49:00.120Z,81.20
2018-02-01T17:51:27.595Z,81.50
2018-02-01T17:53:55.072Z,81.30
2018-02-01T17:56:22.577Z,81.50
2018-02-01T17:58:50.825Z,82.50
2018-02-01T18:01:18.366Z,82.40
2018-02-01T18:03:45.820Z,82.90
2018-02-01T18:06:13.330Z,83.20
2018-02-01T18:08:40.829Z,83.20
2018-02-01T18:11:08.312Z,82.70
2018-02-01T18:13:35.810Z,82.70
2018-02-01T18:16:03.287Z,82.70
2018-02-01T18:18:30.780Z,82.20
2018-02-01T18:20:59.026Z,82.60
2018-02-01T18:23:26.531Z,81.90
2018-02-01T18:25:54.787Z,81.90
2018-02-01T18:28:22.272Z,81.90
2018-02-01T18:30:49.727Z,82.00
2018-02-01T18:33:17.802Z,81.60
2018-02-01T18:35:45.520Z,81.70
2018-02-01T18:38:13.129Z,81.20
2018-02-01T18:40:40.721Z,80.90
2018-02-01T18:43:08.244Z,80.80
2018-02-01T18:45:35.902Z,81.10
2018-02-01T18:48:03.368Z,81.30
2018-02-01T18:50:30.888Z,81.40
2018-02-01T18:52:59.192Z,81.80
2018-02-01T18:55:27.170Z,81.80
2018-02-01T18:57:54.616Z,82.20
2018-02-01T19:00:22.091Z,82.40
2018-02-01T19:02:49.557Z,82.70
2018-02-01T19:05:17.147Z,82.80
2018-02-01T19:07:45.363Z,84.10
2018-02-01T19:10:12.872Z,84.10
2018-02-01T19:12:40.352Z,84.30
2018-02-01T19:15:07.825Z,84.60
2018-02-01T19:17:35.292Z,84.70
2018-02-01T19:20:02.775Z,84.50
2018-02-01T19:22:30.234Z,84.40
2018-02-01T19:24:57.722Z,84.20
2018-02-01T19:27:26.066Z,83.60
2018-02-01T19:29:53.581Z,83.60
2018-02-01T19:32:21.048Z,83.20
2018-02-01T19:34:48.526Z,83.30
2018-02-01T19:37:15.987Z,83.40
2018-02-01T19:39:43.455Z,83.30
2018-02-01T19:42:11.292Z,83.40
2018-02-01T19:44:38.915Z,83.40
2018-02-01T19:47:07.237Z,81.90
2018-02-01T19:49:34.732Z,81.90
2018-02-01T19:52:02.982Z,82.20
2018-02-01T19:54:30.464Z,82.20
2018-02-01T20:09:58.029Z,82.50
2018-02-01T20:12:25.523Z,85.30
2018-02-01T20:14:53.055Z,85.90
2018-02-01T20:17:20.554Z,86.40
2018-02-01T20:19:48.052Z,86.70
2018-02-01T20:22:15.521Z,86.60
2018-02-01T20:24:43.073Z,86.00
2018-02-01T20:27:10.542Z,85.80
2018-02-01T20:29:38.022Z,85.50
2018-02-01T20:32:05.494Z,84.70
2018-02-01T20:34:33.739Z,83.90
2018-02-01T20:37:01.217Z,83.90
2018-02-01T20:39:28.717Z,83.60
2018-02-01T20:41:56.204Z,83.40
2018-02-01T20:44:23.685Z,83.40
2018-02-01T20:46:51.176Z,83.50
2018-02-01T20:49:18.676Z,83.60
2018-02-01T20:51:46.153Z,83.20
2018-02-01T20:54:14.431Z,83.30
2018-02-01T20:56:42.704Z,83.40
2018-02-01T20:59:10.186Z,83.40
2018-02-01T21:01:38.432Z,84.10
2018-02-01T21:04:05.931Z,84.00
2018-02-01T21:06:33.398Z,84.30
2018-02-01T21:09:00.878Z,84.40
2018-02-01T21:11:28.364Z,84.50
2018-02-01T21:13:55.851Z,85.10
